sensor_id;sensor_type;location;lat;lon;timestamp;P1;durP1;ratioP1;P2;durP2;ratioP2
18857;SDS011;9558;50.178;8.370;2024-03-02T00:02:04;4.97;;;2.45;;
18857;SDS011;9558;50.178;8.370;2024-03-02T00:04:53;4.75;;;2.05;;
18857;SDS011;9558;50.178;8.370;2024-03-02T00:07:40;7.45;;;3.97;;
18857;SDS011;9558;50.178;8.370;2024-03-02T00:10:30;5.78;;;2.97;;
18857;SDS011;9558;50.178;8.370;2024-03-02T00:13:24;5.30;;;3.13;;
18857;SDS011;9558;50.178;8.370;2024-03-02T00:16:13;8.90;;;3.88;;
18857;SDS011;9558;50.178;8.370;2024-03-02T00:19:01;6.63;;;2.95;;
18857;SDS011;9558;50.178;8.370;2024-03-02T00:21:49;4.32;;;2.70;;
18857;SDS011;9558;50.178;8.370;2024-03-02T00:24:36;4.93;;;2.90;;
18857;SDS011;9558;50.178;8.370;2024-03-02T00:27:22;6.00;;;2.65;;
18857;SDS011;9558;50.178;8.370;2024-03-02T00:30:13;4.10;;;2.03;;
18857;SDS011;9558;50.178;8.370;2024-03-02T00:33:32;8.30;;;2.78;;
18857;SDS011;9558;50.178;8.370;2024-03-02T00:36:22;5.03;;;2.50;;
18857;SDS011;9558;50.178;8.370;2024-03-02T00:39:11;4.47;;;2.30;;
18857;SDS011;9558;50.178;8.370;2024-03-02T00:41:59;7.05;;;2.60;;
18857;SDS011;9558;50.178;8.370;2024-03-02T00:44:45;4.60;;;2.45;;
18857;SDS011;9558;50.178;8.370;2024-03-02T00:47:34;4.70;;;2.90;;
18857;SDS011;9558;50.178;8.370;2024-03-02T00:50:25;4.32;;;2.15;;
18857;SDS011;9558;50.178;8.370;2024-03-02T00:53:12;5.32;;;2.85;;
18857;SDS011;9558;50.178;8.370;2024-03-02T00:56:00;8.70;;;2.38;;
18857;SDS011;9558;50.178;8.370;2024-03-02T00:58:48;10.88;;;4.20;;
18857;SDS011;9558;50.178;8.370;2024-03-02T01:01:34;8.93;;;4.95;;
18857;SDS011;9558;50.178;8.370;2024-03-02T01:04:21;7.75;;;4.13;;
18857;SDS011;9558;50.178;8.370;2024-03-02T01:07:09;6.20;;;3.63;;
18857;SDS011;9558;50.178;8.370;2024-03-02T01:09:58;7.80;;;3.10;;
18857;SDS011;9558;50.178;8.370;2024-03-02T01:12:45;4.55;;;2.72;;
18857;SDS011;9558;50.178;8.370;2024-03-02T01:15:33;10.63;;;3.10;;
18857;SDS011;9558;50.178;8.370;2024-03-02T01:18:20;10.25;;;3.35;;
18857;SDS011;9558;50.178;8.370;2024-03-02T01:21:07;4.13;;;2.70;;
18857;SDS011;9558;50.178;8.370;2024-03-02T01:23:55;4.57;;;2.88;;
18857;SDS011;9558;50.178;8.370;2024-03-02T01:26:42;7.13;;;3.10;;
18857;SDS011;9558;50.178;8.370;2024-03-02T01:29:29;3.90;;;2.60;;
18857;SDS011;9558;50.178;8.370;2024-03-02T01:32:16;8.82;;;3.20;;
18857;SDS011;9558;50.178;8.370;2024-03-02T01:35:03;4.00;;;2.83;;
18857;SDS011;9558;50.178;8.370;2024-03-02T01:37:50;3.88;;;2.60;;
18857;SDS011;9558;50.178;8.370;2024-03-02T01:40:41;4.75;;;2.75;;
18857;SDS011;9558;50.178;8.370;2024-03-02T01:43:29;3.72;;;2.38;;
18857;SDS011;9558;50.178;8.370;2024-03-02T01:46:16;6.28;;;2.88;;
18857;SDS011;9558;50.178;8.370;2024-03-02T01:49:03;6.03;;;3.20;;
18857;SDS011;9558;50.178;8.370;2024-03-02T01:51:50;4.57;;;2.75;;
18857;SDS011;9558;50.178;8.370;2024-03-02T01:54:37;6.97;;;3.55;;
18857;SDS011;9558;50.178;8.370;2024-03-02T01:57:25;5.40;;;2.78;;
18857;SDS011;9558;50.178;8.370;2024-03-02T02:00:12;7.65;;;3.58;;
18857;SDS011;9558;50.178;8.370;2024-03-02T02:03:00;7.30;;;3.15;;
18857;SDS011;9558;50.178;8.370;2024-03-02T02:05:47;4.80;;;3.10;;
18857;SDS011;9558;50.178;8.370;2024-03-02T02:08:34;5.97;;;3.58;;
18857;SDS011;9558;50.178;8.370;2024-03-02T02:11:27;6.72;;;3.47;;
18857;SDS011;9558;50.178;8.370;2024-03-02T02:17:03;8.32;;;2.97;;
18857;SDS011;9558;50.178;8.370;2024-03-02T02:19:50;6.47;;;3.42;;
18857;SDS011;9558;50.178;8.370;2024-03-02T02:22:38;6.70;;;3.45;;
18857;SDS011;9558;50.178;8.370;2024-03-02T02:25:25;5.97;;;3.08;;
18857;SDS011;9558;50.178;8.370;2024-03-02T02:28:12;9.23;;;4.28;;
18857;SDS011;9558;50.178;8.370;2024-03-02T02:30:59;6.30;;;3.17;;
18857;SDS011;9558;50.178;8.370;2024-03-02T02:33:46;9.18;;;3.55;;
18857;SDS011;9558;50.178;8.370;2024-03-02T02:36:33;12.23;;;3.53;;
18857;SDS011;9558;50.178;8.370;2024-03-02T02:39:22;7.53;;;3.65;;
18857;SDS011;9558;50.178;8.370;2024-03-02T02:42:08;7.88;;;3.65;;
18857;SDS011;9558;50.178;8.370;2024-03-02T02:44:55;5.13;;;3.10;;
18857;SDS011;9558;50.178;8.370;2024-03-02T02:47:42;6.90;;;3.17;;
18857;SDS011;9558;50.178;8.370;2024-03-02T02:50:29;6.93;;;3.08;;
18857;SDS011;9558;50.178;8.370;2024-03-02T02:53:17;4.38;;;2.75;;
18857;SDS011;9558;50.178;8.370;2024-03-02T02:56:06;6.78;;;3.25;;
18857;SDS011;9558;50.178;8.370;2024-03-02T02:58:52;10.82;;;3.78;;
18857;SDS011;9558;50.178;8.370;2024-03-02T03:01:39;9.15;;;3.33;;
18857;SDS011;9558;50.178;8.370;2024-03-02T03:04:26;7.88;;;3.65;;
18857;SDS011;9558;50.178;8.370;2024-03-02T03:07:13;11.27;;;5.03;;
18857;SDS011;9558;50.178;8.370;2024-03-02T03:10:00;9.80;;;4.53;;
18857;SDS011;9558;50.178;8.370;2024-03-02T03:15:35;6.70;;;3.05;;
18857;SDS011;9558;50.178;8.370;2024-03-02T03:18:22;6.70;;;3.38;;
18857;SDS011;9558;50.178;8.370;2024-03-02T03:21:09;8.10;;;3.33;;
18857;SDS011;9558;50.178;8.370;2024-03-02T03:23:56;9.02;;;3.20;;
18857;SDS011;9558;50.178;8.370;2024-03-02T03:26:43;4.75;;;2.47;;
18857;SDS011;9558;50.178;8.370;2024-03-02T03:32:18;5.50;;;3.15;;
18857;SDS011;9558;50.178;8.370;2024-03-02T03:37:52;8.70;;;3.15;;
18857;SDS011;9558;50.178;8.370;2024-03-02T03:40:39;6.35;;;3.00;;
18857;SDS011;9558;50.178;8.370;2024-03-02T03:43:25;10.27;;;3.70;;
18857;SDS011;9558;50.178;8.370;2024-03-02T03:46:13;9.30;;;3.58;;
18857;SDS011;9558;50.178;8.370;2024-03-02T03:49:00;8.95;;;3.38;;
18857;SDS011;9558;50.178;8.370;2024-03-02T03:51:47;6.15;;;3.10;;
18857;SDS011;9558;50.178;8.370;2024-03-02T03:54:34;7.88;;;3.47;;
18857;SDS011;9558;50.178;8.370;2024-03-02T03:57:22;9.77;;;3.83;;
18857;SDS011;9558;50.178;8.370;2024-03-02T04:00:09;7.45;;;3.45;;
18857;SDS011;9558;50.178;8.370;2024-03-02T04:02:36;6.20;;;3.17;;
18857;SDS011;9558;50.178;8.370;2024-03-02T04:05:23;8.02;;;3.70;;
18857;SDS011;9558;50.178;8.370;2024-03-02T04:08:09;9.32;;;3.38;;
18857;SDS011;9558;50.178;8.370;2024-03-02T04:10:57;7.57;;;3.10;;
18857;SDS011;9558;50.178;8.370;2024-03-02T04:13:44;7.53;;;3.38;;
18857;SDS011;9558;50.178;8.370;2024-03-02T04:16:30;8.13;;;4.05;;
18857;SDS011;9558;50.178;8.370;2024-03-02T04:19:18;8.93;;;3.47;;
18857;SDS011;9558;50.178;8.370;2024-03-02T04:22:05;14.73;;;3.22;;
18857;SDS011;9558;50.178;8.370;2024-03-02T04:24:52;8.40;;;3.40;;
18857;SDS011;9558;50.178;8.370;2024-03-02T04:30:26;5.82;;;2.80;;
18857;SDS011;9558;50.178;8.370;2024-03-02T04:33:12;8.40;;;3.30;;
18857;SDS011;9558;50.178;8.370;2024-03-02T04:36:01;7.15;;;3.67;;
18857;SDS011;9558;50.178;8.370;2024-03-02T04:38:47;8.98;;;3.50;;
18857;SDS011;9558;50.178;8.370;2024-03-02T04:41:34;8.75;;;3.50;;
18857;SDS011;9558;50.178;8.370;2024-03-02T04:44:21;10.20;;;3.65;;
18857;SDS011;9558;50.178;8.370;2024-03-02T04:47:08;6.45;;;2.67;;
18857;SDS011;9558;50.178;8.370;2024-03-02T04:49:54;9.93;;;4.43;;
18857;SDS011;9558;50.178;8.370;2024-03-02T04:52:43;7.15;;;3.40;;
18857;SDS011;9558;50.178;8.370;2024-03-02T04:55:30;9.27;;;3.72;;
18857;SDS011;9558;50.178;8.370;2024-03-02T04:58:41;7.63;;;3.55;;
18857;SDS011;9558;50.178;8.370;2024-03-02T05:01:28;5.15;;;3.08;;
18857;SDS011;9558;50.178;8.370;2024-03-02T05:04:15;7.07;;;2.78;;
18857;SDS011;9558;50.178;8.370;2024-03-02T05:07:02;8.18;;;3.60;;
18857;SDS011;9558;50.178;8.370;2024-03-02T05:09:50;6.35;;;3.13;;
18857;SDS011;9558;50.178;8.370;2024-03-02T05:12:37;5.88;;;3.35;;
18857;SDS011;9558;50.178;8.370;2024-03-02T05:15:41;8.07;;;3.95;;
18857;SDS011;9558;50.178;8.370;2024-03-02T05:18:28;6.93;;;3.42;;
18857;SDS011;9558;50.178;8.370;2024-03-02T05:21:15;4.93;;;3.20;;
18857;SDS011;9558;50.178;8.370;2024-03-02T05:24:02;6.72;;;2.75;;
18857;SDS011;9558;50.178;8.370;2024-03-02T05:26:50;6.10;;;3.10;;
18857;SDS011;9558;50.178;8.370;2024-03-02T05:29:37;10.50;;;4.03;;
18857;SDS011;9558;50.178;8.370;2024-03-02T05:32:24;5.53;;;3.33;;
18857;SDS011;9558;50.178;8.370;2024-03-02T05:35:11;6.75;;;3.65;;
18857;SDS011;9558;50.178;8.370;2024-03-02T05:37:58;10.40;;;3.17;;
18857;SDS011;9558;50.178;8.370;2024-03-02T05:40:45;10.73;;;4.22;;
18857;SDS011;9558;50.178;8.370;2024-03-02T05:43:33;8.27;;;4.53;;
18857;SDS011;9558;50.178;8.370;2024-03-02T05:46:20;9.13;;;3.83;;
18857;SDS011;9558;50.178;8.370;2024-03-02T05:49:07;6.68;;;3.35;;
18857;SDS011;9558;50.178;8.370;2024-03-02T05:51:55;7.22;;;4.25;;
18857;SDS011;9558;50.178;8.370;2024-03-02T05:54:41;12.18;;;4.30;;
18857;SDS011;9558;50.178;8.370;2024-03-02T05:57:28;9.27;;;4.05;;
18857;SDS011;9558;50.178;8.370;2024-03-02T06:00:32;8.32;;;4.40;;
18857;SDS011;9558;50.178;8.370;2024-03-02T06:03:18;5.03;;;3.30;;
18857;SDS011;9558;50.178;8.370;2024-03-02T06:06:05;7.32;;;4.10;;
18857;SDS011;9558;50.178;8.370;2024-03-02T06:08:52;7.80;;;4.03;;
18857;SDS011;9558;50.178;8.370;2024-03-02T06:11:40;8.20;;;4.03;;
18857;SDS011;9558;50.178;8.370;2024-03-02T06:14:27;8.65;;;3.88;;
18857;SDS011;9558;50.178;8.370;2024-03-02T06:17:15;8.00;;;3.10;;
18857;SDS011;9558;50.178;8.370;2024-03-02T06:20:02;7.90;;;3.80;;
18857;SDS011;9558;50.178;8.370;2024-03-02T06:22:50;4.43;;;3.03;;
18857;SDS011;9558;50.178;8.370;2024-03-02T06:25:37;6.55;;;2.67;;
18857;SDS011;9558;50.178;8.370;2024-03-02T06:28:23;11.43;;;3.40;;
18857;SDS011;9558;50.178;8.370;2024-03-02T06:31:10;7.20;;;2.65;;
18857;SDS011;9558;50.178;8.370;2024-03-02T06:33:58;6.32;;;2.75;;
18857;SDS011;9558;50.178;8.370;2024-03-02T06:36:45;6.85;;;3.13;;
18857;SDS011;9558;50.178;8.370;2024-03-02T06:39:33;8.30;;;3.55;;
18857;SDS011;9558;50.178;8.370;2024-03-02T06:42:20;6.20;;;3.05;;
18857;SDS011;9558;50.178;8.370;2024-03-02T06:45:06;4.70;;;2.63;;
18857;SDS011;9558;50.178;8.370;2024-03-02T06:47:53;8.32;;;3.10;;
18857;SDS011;9558;50.178;8.370;2024-03-02T06:50:41;6.30;;;2.92;;
18857;SDS011;9558;50.178;8.370;2024-03-02T06:53:28;8.57;;;3.90;;
18857;SDS011;9558;50.178;8.370;2024-03-02T06:56:16;5.85;;;2.72;;
18857;SDS011;9558;50.178;8.370;2024-03-02T06:59:03;9.98;;;3.55;;
18857;SDS011;9558;50.178;8.370;2024-03-02T07:01:50;5.72;;;2.85;;
18857;SDS011;9558;50.178;8.370;2024-03-02T07:04:37;4.57;;;3.05;;
18857;SDS011;9558;50.178;8.370;2024-03-02T07:07:25;10.52;;;2.63;;
18857;SDS011;9558;50.178;8.370;2024-03-02T07:10:12;7.22;;;2.90;;
18857;SDS011;9558;50.178;8.370;2024-03-02T07:12:59;9.43;;;4.18;;
18857;SDS011;9558;50.178;8.370;2024-03-02T07:15:46;6.38;;;3.05;;
18857;SDS011;9558;50.178;8.370;2024-03-02T07:18:56;7.05;;;3.28;;
18857;SDS011;9558;50.178;8.370;2024-03-02T07:21:44;6.10;;;3.42;;
18857;SDS011;9558;50.178;8.370;2024-03-02T07:24:32;11.63;;;6.15;;
18857;SDS011;9558;50.178;8.370;2024-03-02T07:27:19;18.95;;;9.10;;
18857;SDS011;9558;50.178;8.370;2024-03-02T07:30:06;25.45;;;11.38;;
18857;SDS011;9558;50.178;8.370;2024-03-02T07:32:53;23.45;;;10.85;;
18857;SDS011;9558;50.178;8.370;2024-03-02T07:35:40;18.55;;;7.63;;
18857;SDS011;9558;50.178;8.370;2024-03-02T07:38:27;14.75;;;7.35;;
18857;SDS011;9558;50.178;8.370;2024-03-02T07:41:16;25.60;;;8.23;;
18857;SDS011;9558;50.178;8.370;2024-03-02T07:44:03;18.45;;;9.40;;
18857;SDS011;9558;50.178;8.370;2024-03-02T07:46:50;21.35;;;10.13;;
18857;SDS011;9558;50.178;8.370;2024-03-02T07:49:37;14.30;;;4.97;;
18857;SDS011;9558;50.178;8.370;2024-03-02T07:52:24;12.10;;;5.10;;
18857;SDS011;9558;50.178;8.370;2024-03-02T07:55:11;11.13;;;4.38;;
18857;SDS011;9558;50.178;8.370;2024-03-02T07:57:59;8.68;;;5.15;;
18857;SDS011;9558;50.178;8.370;2024-03-02T08:00:46;10.85;;;5.13;;
18857;SDS011;9558;50.178;8.370;2024-03-02T08:06:20;8.05;;;4.53;;
18857;SDS011;9558;50.178;8.370;2024-03-02T08:09:10;10.18;;;4.20;;
18857;SDS011;9558;50.178;8.370;2024-03-02T08:11:57;10.15;;;3.85;;
18857;SDS011;9558;50.178;8.370;2024-03-02T08:14:45;7.90;;;3.75;;
18857;SDS011;9558;50.178;8.370;2024-03-02T08:17:32;7.85;;;3.92;;
18857;SDS011;9558;50.178;8.370;2024-03-02T08:20:19;7.90;;;4.25;;
18857;SDS011;9558;50.178;8.370;2024-03-02T08:23:06;6.85;;;2.95;;
18857;SDS011;9558;50.178;8.370;2024-03-02T08:25:53;8.23;;;4.35;;
18857;SDS011;9558;50.178;8.370;2024-03-02T08:31:28;8.88;;;4.30;;
18857;SDS011;9558;50.178;8.370;2024-03-02T08:34:15;9.00;;;4.80;;
18857;SDS011;9558;50.178;8.370;2024-03-02T08:37:02;9.55;;;4.70;;
18857;SDS011;9558;50.178;8.370;2024-03-02T08:39:49;8.20;;;4.60;;
18857;SDS011;9558;50.178;8.370;2024-03-02T08:45:23;8.90;;;4.10;;
18857;SDS011;9558;50.178;8.370;2024-03-02T08:48:11;8.02;;;4.13;;
18857;SDS011;9558;50.178;8.370;2024-03-02T08:50:58;10.07;;;4.45;;
18857;SDS011;9558;50.178;8.370;2024-03-02T08:56:31;10.02;;;4.45;;
18857;SDS011;9558;50.178;8.370;2024-03-02T08:59:18;8.40;;;5.32;;
18857;SDS011;9558;50.178;8.370;2024-03-02T09:02:05;8.65;;;4.38;;
18857;SDS011;9558;50.178;8.370;2024-03-02T09:04:54;10.93;;;4.57;;
18857;SDS011;9558;50.178;8.370;2024-03-02T09:07:41;9.25;;;4.93;;
18857;SDS011;9558;50.178;8.370;2024-03-02T09:10:28;8.60;;;3.92;;
18857;SDS011;9558;50.178;8.370;2024-03-02T09:13:14;8.57;;;4.80;;
18857;SDS011;9558;50.178;8.370;2024-03-02T09:16:01;10.63;;;4.18;;
18857;SDS011;9558;50.178;8.370;2024-03-02T09:18:49;8.80;;;4.57;;
18857;SDS011;9558;50.178;8.370;2024-03-02T09:21:37;7.70;;;3.50;;
18857;SDS011;9558;50.178;8.370;2024-03-02T09:24:24;8.02;;;4.18;;
18857;SDS011;9558;50.178;8.370;2024-03-02T09:27:11;5.20;;;3.30;;
18857;SDS011;9558;50.178;8.370;2024-03-02T09:29:58;6.80;;;3.50;;
18857;SDS011;9558;50.178;8.370;2024-03-02T09:32:45;5.63;;;3.47;;
18857;SDS011;9558;50.178;8.370;2024-03-02T09:35:32;5.47;;;3.35;;
18857;SDS011;9558;50.178;8.370;2024-03-02T09:38:20;3.83;;;2.47;;
18857;SDS011;9558;50.178;8.370;2024-03-02T09:41:07;5.70;;;3.65;;
18857;SDS011;9558;50.178;8.370;2024-03-02T09:43:54;7.82;;;3.72;;
18857;SDS011;9558;50.178;8.370;2024-03-02T09:46:43;5.90;;;3.38;;
18857;SDS011;9558;50.178;8.370;2024-03-02T09:49:32;7.00;;;3.45;;
18857;SDS011;9558;50.178;8.370;2024-03-02T09:52:19;4.55;;;2.67;;
18857;SDS011;9558;50.178;8.370;2024-03-02T09:55:07;6.50;;;2.58;;
18857;SDS011;9558;50.178;8.370;2024-03-02T09:57:55;5.25;;;2.67;;
18857;SDS011;9558;50.178;8.370;2024-03-02T10:00:42;5.25;;;2.60;;
18857;SDS011;9558;50.178;8.370;2024-03-02T10:03:29;5.57;;;2.60;;
18857;SDS011;9558;50.178;8.370;2024-03-02T10:06:18;6.13;;;2.75;;
18857;SDS011;9558;50.178;8.370;2024-03-02T10:09:05;4.13;;;2.53;;
18857;SDS011;9558;50.178;8.370;2024-03-02T10:12:01;4.47;;;2.47;;
18857;SDS011;9558;50.178;8.370;2024-03-02T10:14:50;3.50;;;2.30;;
18857;SDS011;9558;50.178;8.370;2024-03-02T10:17:49;6.60;;;2.72;;
18857;SDS011;9558;50.178;8.370;2024-03-02T10:20:37;5.22;;;2.75;;
18857;SDS011;9558;50.178;8.370;2024-03-02T10:23:27;6.00;;;3.10;;
18857;SDS011;9558;50.178;8.370;2024-03-02T10:26:16;5.68;;;3.10;;
18857;SDS011;9558;50.178;8.370;2024-03-02T10:29:05;7.50;;;3.42;;
18857;SDS011;9558;50.178;8.370;2024-03-02T10:31:51;5.65;;;2.83;;
18857;SDS011;9558;50.178;8.370;2024-03-02T10:37:26;4.82;;;2.58;;
18857;SDS011;9558;50.178;8.370;2024-03-02T10:40:13;4.43;;;2.78;;
18857;SDS011;9558;50.178;8.370;2024-03-02T10:43:01;6.82;;;2.70;;
18857;SDS011;9558;50.178;8.370;2024-03-02T10:45:50;5.20;;;2.80;;
18857;SDS011;9558;50.178;8.370;2024-03-02T10:48:38;4.47;;;2.35;;
18857;SDS011;9558;50.178;8.370;2024-03-02T10:51:26;4.78;;;2.97;;
18857;SDS011;9558;50.178;8.370;2024-03-02T10:54:16;5.07;;;2.33;;
18857;SDS011;9558;50.178;8.370;2024-03-02T10:57:11;5.07;;;2.78;;
18857;SDS011;9558;50.178;8.370;2024-03-02T11:00:03;5.18;;;2.38;;
18857;SDS011;9558;50.178;8.370;2024-03-02T11:03:02;4.65;;;2.50;;
18857;SDS011;9558;50.178;8.370;2024-03-02T11:05:54;6.53;;;3.03;;
18857;SDS011;9558;50.178;8.370;2024-03-02T11:08:43;5.63;;;2.38;;
18857;SDS011;9558;50.178;8.370;2024-03-02T11:11:36;5.38;;;2.70;;
18857;SDS011;9558;50.178;8.370;2024-03-02T11:14:25;4.97;;;2.63;;
18857;SDS011;9558;50.178;8.370;2024-03-02T11:17:12;5.22;;;2.58;;
18857;SDS011;9558;50.178;8.370;2024-03-02T11:20:04;4.57;;;2.78;;
18857;SDS011;9558;50.178;8.370;2024-03-02T11:22:54;4.45;;;2.65;;
18857;SDS011;9558;50.178;8.370;2024-03-02T11:25:40;4.03;;;2.58;;
18857;SDS011;9558;50.178;8.370;2024-03-02T11:28:34;4.20;;;2.33;;
18857;SDS011;9558;50.178;8.370;2024-03-02T11:31:23;3.78;;;2.35;;
18857;SDS011;9558;50.178;8.370;2024-03-02T11:34:46;5.50;;;2.42;;
18857;SDS011;9558;50.178;8.370;2024-03-02T11:37:38;5.47;;;2.40;;
18857;SDS011;9558;50.178;8.370;2024-03-02T11:40:27;4.07;;;2.30;;
18857;SDS011;9558;50.178;8.370;2024-03-02T11:43:14;4.63;;;2.30;;
18857;SDS011;9558;50.178;8.370;2024-03-02T11:46:03;5.35;;;2.30;;
18857;SDS011;9558;50.178;8.370;2024-03-02T11:48:52;4.25;;;2.35;;
18857;SDS011;9558;50.178;8.370;2024-03-02T11:51:40;6.25;;;2.72;;
18857;SDS011;9558;50.178;8.370;2024-03-02T11:54:41;4.25;;;2.50;;
18857;SDS011;9558;50.178;8.370;2024-03-02T11:57:32;5.88;;;2.67;;
18857;SDS011;9558;50.178;8.370;2024-03-02T12:00:20;4.50;;;2.72;;
18857;SDS011;9558;50.178;8.370;2024-03-02T12:03:07;4.68;;;2.63;;
18857;SDS011;9558;50.178;8.370;2024-03-02T12:05:55;4.63;;;2.60;;
18857;SDS011;9558;50.178;8.370;2024-03-02T12:08:42;3.78;;;2.38;;
18857;SDS011;9558;50.178;8.370;2024-03-02T12:11:32;3.90;;;2.13;;
18857;SDS011;9558;50.178;8.370;2024-03-02T12:14:18;5.00;;;2.53;;
18857;SDS011;9558;50.178;8.370;2024-03-02T12:17:05;4.13;;;2.35;;
18857;SDS011;9558;50.178;8.370;2024-03-02T12:19:52;4.03;;;2.13;;
18857;SDS011;9558;50.178;8.370;2024-03-02T12:22:39;4.13;;;2.30;;
18857;SDS011;9558;50.178;8.370;2024-03-02T12:25:27;5.15;;;2.50;;
18857;SDS011;9558;50.178;8.370;2024-03-02T12:28:15;4.75;;;2.58;;
18857;SDS011;9558;50.178;8.370;2024-03-02T12:31:03;2.85;;;1.80;;
18857;SDS011;9558;50.178;8.370;2024-03-02T12:33:50;2.88;;;1.90;;
18857;SDS011;9558;50.178;8.370;2024-03-02T12:36:37;5.10;;;1.88;;
18857;SDS011;9558;50.178;8.370;2024-03-02T12:39:25;1.52;;;1.20;;
18857;SDS011;9558;50.178;8.370;2024-03-02T12:42:12;3.88;;;1.80;;
18857;SDS011;9558;50.178;8.370;2024-03-02T12:45:00;2.88;;;1.65;;
18857;SDS011;9558;50.178;8.370;2024-03-02T12:47:47;1.85;;;1.17;;
18857;SDS011;9558;50.178;8.370;2024-03-02T12:50:34;2.42;;;1.40;;
18857;SDS011;9558;50.178;8.370;2024-03-02T12:53:21;1.90;;;1.20;;
18857;SDS011;9558;50.178;8.370;2024-03-02T12:56:10;3.92;;;1.70;;
18857;SDS011;9558;50.178;8.370;2024-03-02T12:58:57;1.65;;;1.02;;
18857;SDS011;9558;50.178;8.370;2024-03-02T13:01:51;2.17;;;1.40;;
18857;SDS011;9558;50.178;8.370;2024-03-02T13:04:38;2.40;;;1.70;;
18857;SDS011;9558;50.178;8.370;2024-03-02T13:07:27;2.75;;;1.70;;
18857;SDS011;9558;50.178;8.370;2024-03-02T13:10:13;3.30;;;1.67;;
18857;SDS011;9558;50.178;8.370;2024-03-02T13:13:00;4.60;;;1.63;;
18857;SDS011;9558;50.178;8.370;2024-03-02T13:15:47;2.95;;;1.77;;
18857;SDS011;9558;50.178;8.370;2024-03-02T13:18:39;3.33;;;2.13;;
18857;SDS011;9558;50.178;8.370;2024-03-02T13:21:26;1.60;;;1.50;;
18857;SDS011;9558;50.178;8.370;2024-03-02T13:24:13;2.53;;;1.70;;
18857;SDS011;9558;50.178;8.370;2024-03-02T13:27:00;4.40;;;1.50;;
18857;SDS011;9558;50.178;8.370;2024-03-02T13:29:49;4.13;;;2.10;;
18857;SDS011;9558;50.178;8.370;2024-03-02T13:32:36;2.22;;;1.58;;
18857;SDS011;9558;50.178;8.370;2024-03-02T13:35:24;6.15;;;2.65;;
18857;SDS011;9558;50.178;8.370;2024-03-02T13:38:11;2.80;;;1.80;;
18857;SDS011;9558;50.178;8.370;2024-03-02T13:40:58;2.92;;;1.90;;
18857;SDS011;9558;50.178;8.370;2024-03-02T13:43:46;2.92;;;1.60;;
18857;SDS011;9558;50.178;8.370;2024-03-02T13:46:33;2.78;;;1.60;;
18857;SDS011;9558;50.178;8.370;2024-03-02T13:49:20;4.20;;;1.90;;
18857;SDS011;9558;50.178;8.370;2024-03-02T13:52:10;3.78;;;2.05;;
18857;SDS011;9558;50.178;8.370;2024-03-02T13:54:58;4.30;;;1.52;;
18857;SDS011;9558;50.178;8.370;2024-03-02T13:57:46;4.57;;;2.40;;
18857;SDS011;9558;50.178;8.370;2024-03-02T14:00:33;5.53;;;2.17;;
18857;SDS011;9558;50.178;8.370;2024-03-02T14:03:21;4.35;;;2.10;;
18857;SDS011;9558;50.178;8.370;2024-03-02T14:06:07;4.75;;;2.15;;
18857;SDS011;9558;50.178;8.370;2024-03-02T14:08:56;5.78;;;2.53;;
18857;SDS011;9558;50.178;8.370;2024-03-02T14:11:43;6.88;;;2.47;;
18857;SDS011;9558;50.178;8.370;2024-03-02T14:14:29;4.72;;;2.10;;
18857;SDS011;9558;50.178;8.370;2024-03-02T14:17:16;2.80;;;2.15;;
18857;SDS011;9558;50.178;8.370;2024-03-02T14:20:03;5.07;;;1.92;;
18857;SDS011;9558;50.178;8.370;2024-03-02T14:22:52;3.72;;;2.30;;
18857;SDS011;9558;50.178;8.370;2024-03-02T14:25:40;2.65;;;1.85;;
18857;SDS011;9558;50.178;8.370;2024-03-02T14:28:27;3.80;;;2.17;;
18857;SDS011;9558;50.178;8.370;2024-03-02T14:31:14;4.85;;;2.10;;
18857;SDS011;9558;50.178;8.370;2024-03-02T14:34:01;3.38;;;2.03;;
18857;SDS011;9558;50.178;8.370;2024-03-02T14:36:49;6.15;;;2.60;;
18857;SDS011;9558;50.178;8.370;2024-03-02T14:39:36;3.22;;;2.00;;
18857;SDS011;9558;50.178;8.370;2024-03-02T14:42:24;3.42;;;1.88;;
18857;SDS011;9558;50.178;8.370;2024-03-02T14:45:14;4.13;;;1.85;;
18857;SDS011;9558;50.178;8.370;2024-03-02T14:48:01;2.60;;;1.67;;
18857;SDS011;9558;50.178;8.370;2024-03-02T14:50:51;3.40;;;2.10;;
18857;SDS011;9558;50.178;8.370;2024-03-02T14:53:38;4.25;;;2.25;;
18857;SDS011;9558;50.178;8.370;2024-03-02T14:56:25;4.07;;;2.17;;
18857;SDS011;9558;50.178;8.370;2024-03-02T14:59:16;3.00;;;1.85;;
18857;SDS011;9558;50.178;8.370;2024-03-02T15:02:03;2.22;;;1.70;;
18857;SDS011;9558;50.178;8.370;2024-03-02T15:04:50;3.75;;;1.88;;
18857;SDS011;9558;50.178;8.370;2024-03-02T15:07:38;4.00;;;2.10;;
18857;SDS011;9558;50.178;8.370;2024-03-02T15:10:25;3.65;;;2.10;;
18857;SDS011;9558;50.178;8.370;2024-03-02T15:13:12;2.97;;;1.77;;
18857;SDS011;9558;50.178;8.370;2024-03-02T15:16:01;3.53;;;1.40;;
18857;SDS011;9558;50.178;8.370;2024-03-02T15:18:48;5.35;;;1.98;;
18857;SDS011;9558;50.178;8.370;2024-03-02T15:21:35;2.75;;;2.00;;
18857;SDS011;9558;50.178;8.370;2024-03-02T15:24:22;4.20;;;2.15;;
18857;SDS011;9558;50.178;8.370;2024-03-02T15:27:10;3.50;;;1.83;;
18857;SDS011;9558;50.178;8.370;2024-03-02T15:29:57;3.50;;;1.90;;
18857;SDS011;9558;50.178;8.370;2024-03-02T15:32:45;2.17;;;1.33;;
18857;SDS011;9558;50.178;8.370;2024-03-02T15:35:32;3.58;;;2.05;;
18857;SDS011;9558;50.178;8.370;2024-03-02T15:38:19;2.45;;;1.60;;
18857;SDS011;9558;50.178;8.370;2024-03-02T15:41:06;1.95;;;1.20;;
18857;SDS011;9558;50.178;8.370;2024-03-02T15:43:53;2.22;;;1.45;;
18857;SDS011;9558;50.178;8.370;2024-03-02T15:46:42;1.98;;;1.60;;
18857;SDS011;9558;50.178;8.370;2024-03-02T15:49:31;2.63;;;1.50;;
18857;SDS011;9558;50.178;8.370;2024-03-02T15:52:18;1.38;;;1.13;;
18857;SDS011;9558;50.178;8.370;2024-03-02T15:55:06;2.38;;;1.50;;
18857;SDS011;9558;50.178;8.370;2024-03-02T15:57:54;3.20;;;1.52;;
18857;SDS011;9558;50.178;8.370;2024-03-02T16:00:41;2.63;;;1.48;;
18857;SDS011;9558;50.178;8.370;2024-03-02T16:03:28;3.50;;;1.40;;
18857;SDS011;9558;50.178;8.370;2024-03-02T16:06:16;2.83;;;1.67;;
18857;SDS011;9558;50.178;8.370;2024-03-02T16:09:03;3.97;;;1.70;;
18857;SDS011;9558;50.178;8.370;2024-03-02T16:11:55;1.92;;;1.27;;
18857;SDS011;9558;50.178;8.370;2024-03-02T16:14:42;1.48;;;1.30;;
18857;SDS011;9558;50.178;8.370;2024-03-02T16:17:29;4.72;;;1.48;;
18857;SDS011;9558;50.178;8.370;2024-03-02T16:20:15;2.53;;;1.27;;
18857;SDS011;9558;50.178;8.370;2024-03-02T16:23:04;10.88;;;3.58;;
18857;SDS011;9558;50.178;8.370;2024-03-02T16:25:51;6.10;;;2.92;;
18857;SDS011;9558;50.178;8.370;2024-03-02T16:28:39;6.15;;;2.47;;
18857;SDS011;9558;50.178;8.370;2024-03-02T16:31:25;3.33;;;1.80;;
18857;SDS011;9558;50.178;8.370;2024-03-02T16:34:12;2.72;;;1.25;;
18857;SDS011;9558;50.178;8.370;2024-03-02T16:36:59;1.77;;;1.20;;
18857;SDS011;9558;50.178;8.370;2024-03-02T16:39:48;1.58;;;1.20;;
18857;SDS011;9558;50.178;8.370;2024-03-02T16:42:35;1.92;;;1.48;;
18857;SDS011;9558;50.178;8.370;2024-03-02T16:45:21;1.55;;;1.00;;
18857;SDS011;9558;50.178;8.370;2024-03-02T16:48:08;1.98;;;1.02;;
18857;SDS011;9558;50.178;8.370;2024-03-02T16:50:55;2.22;;;1.10;;
18857;SDS011;9558;50.178;8.370;2024-03-02T16:53:43;2.15;;;0.77;;
18857;SDS011;9558;50.178;8.370;2024-03-02T16:56:38;2.70;;;1.00;;
18857;SDS011;9558;50.178;8.370;2024-03-02T16:59:25;0.93;;;0.80;;
18857;SDS011;9558;50.178;8.370;2024-03-02T17:02:12;1.35;;;0.60;;
18857;SDS011;9558;50.178;8.370;2024-03-02T17:04:59;2.78;;;1.00;;
18857;SDS011;9558;50.178;8.370;2024-03-02T17:07:46;1.38;;;1.27;;
18857;SDS011;9558;50.178;8.370;2024-03-02T17:10:33;5.70;;;3.00;;
18857;SDS011;9558;50.178;8.370;2024-03-02T17:13:22;11.32;;;5.13;;
18857;SDS011;9558;50.178;8.370;2024-03-02T17:16:10;7.35;;;4.25;;
18857;SDS011;9558;50.178;8.370;2024-03-02T17:18:58;8.85;;;3.60;;
18857;SDS011;9558;50.178;8.370;2024-03-02T17:21:45;4.70;;;2.83;;
18857;SDS011;9558;50.178;8.370;2024-03-02T17:24:32;3.58;;;1.10;;
18857;SDS011;9558;50.178;8.370;2024-03-02T17:27:19;1.02;;;0.82;;
18857;SDS011;9558;50.178;8.370;2024-03-02T17:30:08;3.97;;;1.17;;
18857;SDS011;9558;50.178;8.370;2024-03-02T17:32:55;2.38;;;0.98;;
18857;SDS011;9558;50.178;8.370;2024-03-02T17:35:42;1.25;;;0.70;;